Time;durP1;ratioP1;P1;durP2;ratioP2;P2;SDS_P1;SDS_P2;PMS_P1;PMS_P2;Temp;Humidity;BMP_temperature;BMP_pressure;BME280_temperature;BME280_humidity;BME280_pressure;Samples;Min_cycle;Max_cycle;Signal;HPM_P1;HPM_P2
2022/04/12 00:00:58;;;;;;;3.28;1.63;;;15.40;42.80;;;;;;5092174;28;20065;-72
2022/04/12 00:03:23;;;;;;;4.90;3.00;;;15.40;42.90;;;;;;5074152;28;20032;-73
2022/04/12 00:05:51;;;;;;;3.72;2.63;;;15.40;42.90;;;;;;5073698;28;20043;-72
2022/04/12 00:08:17;;;;;;;2.80;2.30;;;15.40;42.90;;;;;;5074070;28;20108;-73
2022/04/12 00:10:43;;;;;;;2.53;1.98;;;15.30;42.90;;;;;;5092539;28;20040;-72
2022/04/12 00:13:09;;;;;;;2.47;2.25;;;15.30;43.00;;;;;;5074011;28;20047;-73
2022/04/12 00:15:35;;;;;;;2.83;2.08;;;15.30;43.00;;;;;;5073944;28;20040;-71
2022/04/12 00:20:46;;;;;;;2.20;2.00;;;15.30;43.00;;;;;;5070436;28;20066;-69
2022/04/12 00:23:14;;;;;;;3.70;2.72;;;15.30;43.10;;;;;;5069941;28;20048;-70
2022/04/12 00:25:44;;;;;;;3.08;1.95;;;15.30;43.20;;;;;;5088547;28;20032;-70
2022/04/12 00:28:10;;;;;;;1.88;1.65;;;15.30;43.20;;;;;;5072187;28;20044;-70
2022/04/12 00:30:39;;;;;;;2.88;1.90;;;15.30;43.10;;;;;;5090994;28;20403;-70
2022/04/12 00:33:07;;;;;;;2.83;2.22;;;15.30;43.20;;;;;;5090624;28;20537;-71
2022/04/12 00:35:34;;;;;;;3.85;2.30;;;15.20;43.10;;;;;;5072353;28;20044;-70
2022/04/12 00:38:00;;;;;;;3.05;1.95;;;15.20;43.20;;;;;;5072811;28;20054;-70
2022/04/12 00:40:26;;;;;;;2.70;1.77;;;15.20;43.20;;;;;;5072997;28;20048;-69
2022/04/12 00:42:53;;;;;;;2.63;2.25;;;15.20;43.20;;;;;;5072351;28;20083;-70
2022/04/12 00:45:20;;;;;;;2.58;2.35;;;15.20;43.30;;;;;;5072648;28;20126;-71
2022/04/12 00:47:46;;;;;;;3.03;2.15;;;15.10;43.30;;;;;;5090636;28;20461;-70
2022/04/12 00:50:13;;;;;;;3.83;2.22;;;15.10;43.30;;;;;;5072091;28;20044;-70
2022/04/12 00:52:45;;;;;;;3.38;2.13;;;15.10;43.30;;;;;;5072150;28;20570;-71
2022/04/12 00:55:11;;;;;;;2.80;2.10;;;15.10;43.30;;;;;;5072320;28;20298;-67
2022/04/12 00:57:38;;;;;;;3.70;2.60;;;15.10;43.30;;;;;;5071980;28;20054;-71
2022/04/12 01:00:07;;;;;;;2.53;1.90;;;15.10;43.30;;;;;;5072461;28;20036;-70
2022/04/12 01:02:34;;;;;;;1.85;1.58;;;15.10;43.30;;;;;;5072797;28;20120;-70
2022/04/12 01:05:01;;;;;;;3.40;1.67;;;15.20;43.30;;;;;;5072286;28;20040;-69
2022/04/12 01:07:28;;;;;;;2.15;1.20;;;15.30;43.20;;;;;;5090429;28;20122;-70
2022/04/12 01:09:54;;;;;;;1.50;1.20;;;15.50;42.90;;;;;;5090404;28;20047;-70
2022/04/12 01:12:21;;;;;;;1.50;1.00;;;15.80;42.60;;;;;;5072311;28;20059;-71
2022/04/12 01:14:50;;;;;;;1.48;1.30;;;16.10;42.10;;;;;;5072162;28;20051;-69
2022/04/12 01:17:16;;;;;;;1.38;0.47;;;16.50;41.70;;;;;;5072218;28;20044;-71
2022/04/12 01:19:44;;;;;;;2.17;0.68;;;16.80;41.00;;;;;;5071922;28;20403;-72
2022/04/12 01:22:15;;;;;;;1.50;0.95;;;17.20;40.50;;;;;;5072272;28;20044;-67
2022/04/12 01:24:41;;;;;;;1.80;0.88;;;17.50;39.90;;;;;;5072307;28;20051;-69
2022/04/12 01:27:07;;;;;;;1.98;0.75;;;17.80;39.40;;;;;;5072523;28;20047;-71
2022/04/12 01:29:36;;;;;;;1.27;0.70;;;18.10;39.00;;;;;;5072500;28;20130;-69
2022/04/12 01:32:07;;;;;;;1.60;0.75;;;18.30;38.50;;;;;;5072378;28;20109;-70
2022/04/12 01:34:35;;;;;;;1.35;0.63;;;18.50;38.20;;;;;;5072102;28;20048;-71
2022/04/12 01:37:02;;;;;;;2.10;0.90;;;18.70;37.90;;;;;;5071511;28;20040;-72
2022/04/12 01:39:29;;;;;;;2.00;0.90;;;18.80;37.60;;;;;;5072253;28;20056;-71
2022/04/12 01:41:55;;;;;;;2.42;1.08;;;19.00;37.30;;;;;;5090526;28;20044;-70
2022/04/12 01:44:20;;;;;;;1.40;0.85;;;19.10;37.10;;;;;;5072561;28;20123;-71
2022/04/12 01:46:46;;;;;;;1.55;1.05;;;19.20;36.80;;;;;;5072041;28;20521;-69
2022/04/12 01:49:12;;;;;;;1.95;0.77;;;19.30;36.60;;;;;;5063986;28;20045;-70
2022/04/12 01:51:37;;;;;;;2.22;0.95;;;19.30;36.50;;;;;;5048747;28;20102;-68
2022/04/12 01:54:03;;;;;;;1.10;0.80;;;19.40;36.40;;;;;;5049759;28;20033;-71
2022/04/12 01:56:31;;;;;;;1.55;1.02;;;19.30;36.30;;;;;;5050832;28;20037;-72
2022/04/12 01:58:57;;;;;;;1.40;1.00;;;19.30;36.20;;;;;;5052514;28;20048;-70
2022/04/12 02:01:23;;;;;;;2.40;1.25;;;19.30;36.20;;;;;;5052075;28;20052;-70
2022/04/12 02:03:48;;;;;;;3.00;1.02;;;19.20;36.20;;;;;;5052615;28;20041;-71
2022/04/12 02:06:14;;;;;;;3.25;1.20;;;19.10;36.20;;;;;;5052292;28;20072;-74
2022/04/12 02:08:40;;;;;;;2.28;1.45;;;19.00;36.20;;;;;;5053480;28;20484;-70
2022/04/12 02:11:07;;;;;;;2.30;1.60;;;19.00;36.30;;;;;;5052605;28;20037;-70
2022/04/12 02:13:33;;;;;;;1.60;1.27;;;18.90;36.40;;;;;;5053253;28;20044;-68
2022/04/12 02:15:58;;;;;;;1.75;1.23;;;18.80;36.50;;;;;;5051798;28;20069;-70
2022/04/12 02:18:24;;;;;;;2.28;1.20;;;18.70;36.60;;;;;;5053029;28;20072;-70
2022/04/12 02:20:50;;;;;;;3.47;1.13;;;18.60;37.40;;;;;;5052258;28;20037;-71
2022/04/12 02:23:15;;;;;;;1.77;1.08;;;18.50;36.80;;;;;;5053312;28;20397;-71
2022/04/12 02:25:41;;;;;;;1.70;1.15;;;18.50;37.00;;;;;;5052093;28;20041;-70
2022/04/12 02:28:06;;;;;;;1.55;0.75;;;18.50;37.00;;;;;;5053072;28;20056;-71
2022/04/12 02:30:32;;;;;;;2.20;1.23;;;18.40;37.00;;;;;;5052200;28;20033;-71
2022/04/12 02:33:01;;;;;;;1.63;0.80;;;18.40;37.10;;;;;;5052783;28;20123;-71
2022/04/12 02:35:26;;;;;;;1.58;1.15;;;18.40;37.00;;;;;;5052892;28;20051;-71
2022/04/12 02:37:52;;;;;;;2.25;0.80;;;18.40;37.00;;;;;;5051905;28;20037;-70
2022/04/12 02:40:17;;;;;;;4.82;0.65;;;18.40;37.00;;;;;;5051372;28;20638;-70
2022/04/12 02:42:43;;;;;;;1.55;0.85;;;18.50;37.00;;;;;;5051845;28;20041;-71
2022/04/12 02:45:09;;;;;;;1.75;0.65;;;18.50;36.90;;;;;;5051625;28;20075;-70
2022/04/12 02:47:35;;;;;;;1.08;0.95;;;18.60;36.80;;;;;;5051505;28;20435;-70
2022/04/12 02:50:01;;;;;;;0.90;0.60;;;18.70;36.80;;;;;;5065964;28;20131;-71
2022/04/12 02:52:26;;;;;;;2.35;0.70;;;18.70;36.70;;;;;;5074451;28;20032;-72
2022/04/12 02:54:55;;;;;;;1.33;0.52;;;18.70;36.60;;;;;;5074531;28;20036;-70
2022/04/12 02:57:23;;;;;;;1.52;0.60;;;18.70;36.60;;;;;;5074865;28;20100;-70
2022/04/12 02:59:49;;;;;;;1.25;0.65;;;18.80;36.60;;;;;;5074349;28;20068;-71
2022/04/12 03:02:14;;;;;;;1.67;0.70;;;18.80;36.60;;;;;;5074503;28;20076;-69
2022/04/12 03:04:43;;;;;;;1.20;0.85;;;18.70;36.50;;;;;;5073924;28;20083;-70
2022/04/12 03:07:09;;;;;;;2.60;0.70;;;18.70;36.40;;;;;;5074517;28;20040;-70
2022/04/12 03:09:35;;;;;;;1.63;0.60;;;18.70;36.40;;;;;;5074501;28;20070;-70
2022/04/12 03:12:01;;;;;;;1.20;0.70;;;18.70;36.50;;;;;;5092507;28;20376;-70
2022/04/12 03:14:27;;;;;;;2.03;0.80;;;18.60;36.50;;;;;;5074131;28;20102;-70
2022/04/12 03:16:55;;;;;;;1.58;0.65;;;18.60;36.60;;;;;;5074252;28;20129;-70
2022/04/12 03:19:21;;;;;;;3.10;0.82;;;18.50;36.50;;;;;;5074209;28;20399;-70
2022/04/12 03:21:47;;;;;;;2.13;0.98;;;18.50;36.70;;;;;;5074351;28;20044;-71
2022/04/12 03:24:12;;;;;;;1.73;0.80;;;18.50;36.70;;;;;;5092604;28;20060;-70
2022/04/12 03:26:38;;;;;;;1.33;0.80;;;18.40;36.70;;;;;;5092247;28;20487;-74
2022/04/12 03:29:03;;;;;;;1.38;0.65;;;18.40;36.80;;;;;;5074175;28;20128;-68
2022/04/12 03:31:29;;;;;;;1.40;0.75;;;18.40;36.90;;;;;;5074193;28;20050;-70
2022/04/12 03:33:55;;;;;;;2.67;0.77;;;18.30;36.80;;;;;;5073711;28;20462;-71
2022/04/12 03:36:20;;;;;;;1.33;0.70;;;18.30;36.90;;;;;;5073862;28;20048;-71
2022/04/12 03:38:49;;;;;;;1.85;0.65;;;18.30;36.90;;;;;;5073610;28;20082;-72
2022/04/12 03:41:24;;;;;;;1.08;0.77;;;18.30;37.00;;;;;;5073680;28;20127;-71
2022/04/12 03:43:51;;;;;;;2.10;0.77;;;18.30;37.00;;;;;;5074080;28;20036;-70
2022/04/12 03:46:17;;;;;;;1.27;0.60;;;18.30;37.00;;;;;;5073346;28;20055;-71
2022/04/12 03:48:43;;;;;;;1.63;0.73;;;18.30;36.90;;;;;;5073650;28;20048;-72
2022/04/12 03:51:09;;;;;;;1.73;0.82;;;18.40;37.00;;;;;;5074017;28;20079;-71
2022/04/12 03:53:36;;;;;;;1.02;0.65;;;18.40;36.90;;;;;;5073316;28;20054;-71
2022/04/12 03:56:07;;;;;;;1.20;0.90;;;18.50;36.80;;;;;;5073282;28;20039;-72
2022/04/12 03:58:34;;;;;;;2.63;0.98;;;18.50;36.70;;;;;;5073806;28;20044;-71
2022/04/12 04:01:00;;;;;;;1.42;0.80;;;18.50;36.70;;;;;;5073443;28;20115;-71
2022/04/12 04:03:26;;;;;;;2.33;0.70;;;18.60;36.60;;;;;;5073523;28;20468;-71
2022/04/12 04:05:52;;;;;;;1.85;0.77;;;18.60;36.50;;;;;;5073640;28;20043;-70
2022/04/12 04:08:17;;;;;;;1.17;0.70;;;18.60;36.50;;;;;;5091436;28;20388;-70
2022/04/12 04:10:43;;;;;;;1.25;0.85;;;18.60;36.40;;;;;;5073619;28;20036;-71
2022/04/12 04:13:08;;;;;;;1.75;0.90;;;18.60;36.40;;;;;;5073233;28;20036;-70
2022/04/12 04:15:36;;;;;;;3.92;0.77;;;18.60;36.40;;;;;;5090962;28;20055;-71
2022/04/12 04:18:02;;;;;;;1.30;1.00;;;18.60;36.40;;;;;;5090779;28;20058;-71
2022/04/12 04:20:27;;;;;;;3.13;0.70;;;18.60;36.60;;;;;;5072830;28;20488;-70
2022/04/12 04:22:53;;;;;;;1.10;0.98;;;18.60;36.50;;;;;;5072819;28;20063;-70
2022/04/12 04:25:19;;;;;;;2.05;0.50;;;18.50;36.50;;;;;;5091461;28;20039;-71
2022/04/12 04:27:44;;;;;;;1.67;0.93;;;18.50;36.60;;;;;;5072660;28;20039;-71
2022/04/12 04:30:13;;;;;;;1.35;0.60;;;18.50;36.80;;;;;;5073069;28;20036;-68
2022/04/12 04:32:40;;;;;;;1.15;0.77;;;18.40;36.60;;;;;;5073032;28;20036;-70
2022/04/12 04:35:06;;;;;;;2.83;1.48;;;18.40;36.60;;;;;;5072757;28;20046;-71
2022/04/12 04:37:32;;;;;;;1.40;1.00;;;18.40;36.70;;;;;;5072782;28;20536;-70
2022/04/12 04:39:58;;;;;;;2.13;1.20;;;18.30;36.70;;;;;;5072635;28;20040;-70
2022/04/12 04:42:24;;;;;;;1.25;0.77;;;18.30;36.70;;;;;;5090598;28;20036;-69
2022/04/12 04:44:50;;;;;;;2.90;1.08;;;18.30;36.90;;;;;;5073264;28;20051;-71
2022/04/12 04:47:16;;;;;;;2.92;1.33;;;18.20;36.90;;;;;;5072762;28;20036;-70
2022/04/12 04:49:42;;;;;;;1.67;0.77;;;18.20;37.00;;;;;;5072526;28;20088;-70
2022/04/12 04:52:07;;;;;;;1.73;0.82;;;18.10;36.90;;;;;;5072674;28;20119;-70
2022/04/12 04:54:34;;;;;;;1.55;0.80;;;18.10;37.00;;;;;;5072641;28;20036;-69
2022/04/12 04:56:59;;;;;;;1.90;1.00;;;18.10;37.10;;;;;;5090945;28;20430;-69
2022/04/12 04:59:25;;;;;;;1.60;0.88;;;18.00;37.10;;;;;;5090606;28;20067;-71
2022/04/12 05:01:51;;;;;;;1.40;1.10;;;18.00;37.20;;;;;;5072728;28;20051;-71
2022/04/12 05:04:16;;;;;;;1.65;0.90;;;18.00;37.20;;;;;;5072834;28;20422;-70
2022/04/12 05:06:42;;;;;;;1.48;1.08;;;18.00;37.30;;;;;;5090369;28;20446;-72
2022/04/12 05:09:07;;;;;;;1.25;0.93;;;17.90;37.30;;;;;;5072669;28;20529;-71
2022/04/12 05:11:33;;;;;;;1.35;0.82;;;17.90;37.30;;;;;;5072725;28;20043;-71
2022/04/12 05:13:59;;;;;;;1.80;0.88;;;17.90;37.30;;;;;;5072553;28;20036;-70
2022/04/12 05:16:24;;;;;;;1.85;1.02;;;17.90;37.30;;;;;;5072341;28;20106;-71
2022/04/12 05:18:51;;;;;;;1.42;0.80;;;17.80;37.30;;;;;;5090479;28;20075;-71
2022/04/12 05:21:18;;;;;;;1.40;0.80;;;17.80;37.30;;;;;;5072167;28;20058;-70
2022/04/12 05:23:44;;;;;;;1.98;0.90;;;17.90;37.50;;;;;;5090353;28;20076;-70
2022/04/12 05:26:09;;;;;;;1.58;0.90;;;17.80;37.40;;;;;;5081353;28;20071;-74
2022/04/12 05:28:35;;;;;;;1.90;1.20;;;17.80;37.40;;;;;;5086129;28;20514;-74
2022/04/12 05:31:01;;;;;;;3.70;1.33;;;17.80;37.50;;;;;;5090801;28;20043;-69
2022/04/12 05:33:26;;;;;;;1.80;0.80;;;17.90;37.70;;;;;;5092073;28;20040;-66
2022/04/12 05:35:52;;;;;;;2.70;1.70;;;17.90;37.90;;;;;;5075124;28;20455;-66
2022/04/12 05:38:18;;;;;;;1.40;1.30;;;17.90;38.00;;;;;;5075077;28;20059;-68
2022/04/12 05:40:44;;;;;;;2.97;1.25;;;17.90;38.30;;;;;;5075376;28;20550;-68
2022/04/12 05:43:10;;;;;;;2.10;1.42;;;17.90;38.40;;;;;;5093381;28;20051;-68
2022/04/12 05:45:36;;;;;;;1.52;1.02;;;17.90;38.50;;;;;;5075318;28;20044;-71
2022/04/12 05:48:02;;;;;;;3.60;1.58;;;18.00;38.60;;;;;;5074692;28;20050;-74
2022/04/12 05:50:31;;;;;;;3.50;1.95;;;18.00;38.70;;;;;;5070590;28;20044;-73
2022/04/12 05:52:57;;;;;;;2.72;1.98;;;18.00;38.80;;;;;;5072972;28;20040;-74
2022/04/12 05:55:26;;;;;;;2.45;1.63;;;17.90;38.80;;;;;;5091740;28;20039;-72
2022/04/12 06:00:31;;;;;;;3.30;2.15;;;17.90;38.80;;;;;;5118899;27;1401456;-71
2022/04/12 06:02:58;;;;;;;2.97;2.00;;;17.90;38.60;;;;;;5145373;27;20049;-72
2022/04/12 06:05:28;;;;;;;5.40;1.83;;;17.90;38.70;;;;;;5123770;27;20053;-74
2022/04/12 06:07:54;;;;;;;2.43;1.80;;;17.90;38.80;;;;;;5113108;28;20694;-71
2022/04/12 06:10:21;;;;;;;2.60;1.75;;;17.90;38.90;;;;;;5115549;27;20295;-70
2022/04/12 06:12:47;;;;;;;4.10;1.15;;;17.90;39.00;;;;;;5118137;27;20035;-73
2022/04/12 06:15:13;;;;;;;3.40;1.50;;;17.80;39.20;;;;;;5115624;27;20055;-72
2022/04/12 06:17:39;;;;;;;3.30;1.40;;;17.80;39.30;;;;;;5116834;27;20070;-72
2022/04/12 06:20:09;;;;;;;2.58;1.38;;;17.80;39.60;;;;;;5127080;27;20501;-68
2022/04/12 06:22:35;;;;;;;2.25;1.50;;;17.80;39.80;;;;;;5122477;27;20046;-70
2022/04/12 06:25:01;;;;;;;2.88;1.42;;;17.90;39.70;;;;;;5110131;27;20031;-72
2022/04/12 06:32:47;;;;;;;3.42;1.42;;;17.80;39.80;;;;;;5108882;27;20958;-75
2022/04/12 06:35:13;;;;;;;2.00;1.15;;;17.80;39.80;;;;;;5110346;27;20032;-75
2022/04/12 06:37:41;;;;;;;1.77;1.30;;;17.80;39.80;;;;;;5103494;27;20501;-74
2022/04/12 06:40:12;;;;;;;3.30;1.30;;;17.80;39.70;;;;;;5110931;28;20063;-74
2022/04/12 06:42:38;;;;;;;2.40;1.30;;;17.80;39.50;;;;;;5107973;28;20044;-72
2022/04/12 06:45:05;;;;;;;4.18;1.08;;;17.80;39.60;;;;;;5110333;28;20038;-71
2022/04/12 06:47:32;;;;;;;2.10;1.17;;;17.80;39.40;;;;;;5142626;27;20044;-66
2022/04/12 06:49:58;;;;;;;4.82;1.05;;;17.80;39.60;;;;;;5105676;27;20059;-69
2022/04/12 06:52:23;;;;;;;3.58;0.90;;;17.80;39.80;;;;;;5110335;27;20044;-67
2022/04/12 06:54:50;;;;;;;3.55;1.30;;;17.80;39.90;;;;;;5140374;27;20035;-67
2022/04/12 06:57:16;;;;;;;2.92;0.90;;;17.90;40.20;;;;;;5137456;27;20639;-67
2022/04/12 06:59:42;;;;;;;2.92;0.93;;;17.90;40.30;;;;;;5106332;27;20035;-68
2022/04/12 07:02:08;;;;;;;4.32;1.27;;;17.90;40.50;;;;;;5107548;28;20050;-67
2022/04/12 07:04:34;;;;;;;4.10;2.28;;;17.90;40.50;;;;;;5142203;27;20427;-68
2022/04/12 07:07:00;;;;;;;5.03;2.75;;;17.90;40.60;;;;;;5106963;28;20043;-67
2022/04/12 07:09:27;;;;;;;3.17;1.15;;;18.00;40.60;;;;;;5116079;27;20044;-67
2022/04/12 07:11:54;;;;;;;4.50;1.50;;;18.00;40.70;;;;;;5102920;28;20118;-68
2022/04/12 07:14:23;;;;;;;2.20;1.40;;;18.00;40.80;;;;;;5112252;27;20043;-68
2022/04/12 07:16:49;;;;;;;2.30;1.60;;;18.10;40.80;;;;;;5107965;28;20035;-68
2022/04/12 07:19:18;;;;;;;2.88;1.27;;;18.10;41.10;;;;;;5102593;28;20040;-67
2022/04/12 07:21:44;;;;;;;2.80;1.63;;;18.10;41.20;;;;;;5103586;28;20058;-68
2022/04/12 07:24:13;;;;;;;2.78;1.95;;;18.10;41.30;;;;;;5098709;28;20108;-66
2022/04/12 07:26:38;;;;;;;2.63;0.90;;;18.10;41.30;;;;;;5103481;27;20086;-68
2022/04/12 07:29:05;;;;;;;1.85;1.08;;;18.10;41.40;;;;;;5105486;27;20118;-66
2022/04/12 07:31:30;;;;;;;5.10;1.70;;;18.10;41.40;;;;;;5109488;28;20083;-68
2022/04/12 07:33:56;;;;;;;3.70;0.90;;;18.10;41.70;;;;;;5105639;27;20836;-68
2022/04/12 07:36:22;;;;;;;3.15;1.02;;;18.10;41.60;;;;;;5105657;27;20040;-67
2022/04/12 07:38:49;;;;;;;2.35;1.65;;;18.20;41.70;;;;;;5106549;27;20080;-65
2022/04/12 07:41:15;;;;;;;2.08;1.48;;;18.20;41.70;;;;;;5104358;28;20040;-67
2022/04/12 07:43:42;;;;;;;4.18;1.27;;;18.20;41.60;;;;;;5093470;28;20038;-66
2022/04/12 07:46:08;;;;;;;2.70;1.60;;;18.20;41.70;;;;;;5091930;28;20043;-68
2022/04/12 07:48:34;;;;;;;1.63;0.98;;;18.20;41.80;;;;;;5091769;28;20129;-68
2022/04/12 07:51:00;;;;;;;3.08;1.20;;;18.20;41.80;;;;;;5093952;28;20051;-70
2022/04/12 07:53:26;;;;;;;2.97;1.27;;;18.30;41.80;;;;;;5096343;27;20050;-72
2022/04/12 07:55:51;;;;;;;2.55;1.70;;;18.40;41.70;;;;;;5088092;28;20036;-70
2022/04/12 07:58:17;;;;;;;1.88;1.05;;;18.50;41.60;;;;;;5090261;28;20043;-73
2022/04/12 08:00:43;;;;;;;1.52;1.15;;;18.70;41.20;;;;;;5109269;27;20482;-69
2022/04/12 08:03:08;;;;;;;1.95;1.20;;;18.80;41.10;;;;;;5092257;28;20169;-67
2022/04/12 08:05:35;;;;;;;4.03;1.20;;;19.00;40.80;;;;;;5087948;28;20039;-68
2022/04/12 08:08:02;;;;;;;2.92;0.88;;;19.10;40.70;;;;;;5124558;27;20043;-69
2022/04/12 08:10:28;;;;;;;2.30;1.20;;;19.20;40.50;;;;;;5089315;27;20036;-67
2022/04/12 08:12:54;;;;;;;2.85;0.80;;;19.30;40.40;;;;;;5084822;28;20039;-65
2022/04/12 08:15:20;;;;;;;1.58;1.30;;;19.30;40.20;;;;;;5099067;28;20096;-67
2022/04/12 08:17:46;;;;;;;2.47;0.88;;;19.40;40.20;;;;;;5128583;27;20039;-67
2022/04/12 08:20:13;;;;;;;1.63;1.00;;;19.50;40.20;;;;;;5093412;28;20149;-70
2022/04/12 08:22:40;;;;;;;2.78;1.00;;;19.50;40.10;;;;;;5094564;28;20380;-71
2022/04/12 08:25:08;;;;;;;2.72;1.15;;;19.50;39.90;;;;;;5092325;28;20032;-69
2022/04/12 08:27:33;;;;;;;5.68;1.25;;;19.60;40.00;;;;;;5094387;28;20075;-68
2022/04/12 08:30:00;;;;;;;2.75;1.13;;;19.60;40.00;;;;;;5094950;27;20596;-73
2022/04/12 08:32:25;;;;;;;2.08;1.35;;;19.60;40.10;;;;;;5099337;27;20048;-74
2022/04/12 08:34:55;;;;;;;4.38;1.20;;;19.70;40.30;;;;;;5093685;27;20391;-71
2022/04/12 08:37:21;;;;;;;4.03;1.08;;;19.60;40.20;;;;;;5129543;27;20088;-71
2022/04/12 08:39:50;;;;;;;3.65;1.70;;;19.60;40.20;;;;;;5098700;27;20084;-71
2022/04/12 08:42:17;;;;;;;2.38;1.38;;;19.60;40.10;;;;;;5093728;28;20061;-71
2022/04/12 08:44:45;;;;;;;2.42;1.52;;;19.50;40.00;;;;;;5096795;28;20123;-70
2022/04/12 08:47:14;;;;;;;1.67;0.95;;;19.50;39.90;;;;;;5094210;28;20264;-69
2022/04/12 08:49:40;;;;;;;2.53;1.30;;;19.50;40.00;;;;;;5078245;28;20665;-70
2022/04/12 08:52:11;;;;;;;4.00;1.50;;;19.50;40.00;;;;;;5090517;27;20100;-72
2022/04/12 08:54:38;;;;;;;3.92;1.48;;;19.50;40.10;;;;;;5089785;27;20057;-71
2022/04/12 08:57:05;;;;;;;4.43;1.30;;;19.50;40.10;;;;;;5095567;28;20040;-70
2022/04/12 08:59:33;;;;;;;5.60;1.50;;;19.50;40.00;;;;;;5090992;28;20510;-72
2022/04/12 09:01:59;;;;;;;4.35;1.30;;;19.50;40.10;;;;;;5092899;28;20043;-71
2022/04/12 09:04:27;;;;;;;4.15;1.20;;;19.50;40.20;;;;;;5090584;28;20401;-69
2022/04/12 09:06:56;;;;;;;2.63;1.42;;;19.50;40.30;;;;;;5100429;28;20047;-73
2022/04/12 09:09:23;;;;;;;5.93;1.73;;;19.50;40.40;;;;;;5093278;27;20050;-72
2022/04/12 09:12:08;;;;;;;3.17;1.40;;;19.50;40.60;;;;;;5090768;28;20498;-71
2022/04/12 09:14:54;;;;;;;3.47;1.30;;;19.50;40.90;;;;;;5088816;28;20049;-71
2022/04/12 09:20:19;;;;;;;4.90;0.95;;;19.50;40.90;;;;;;5108162;27;1206027;-68
2022/04/12 09:22:47;;;;;;;5.47;0.90;;;19.50;41.00;;;;;;5114698;27;20062;-68
2022/04/12 09:25:15;;;;;;;3.60;1.08;;;19.50;40.90;;;;;;5114217;27;20050;-70
2022/04/12 09:27:44;;;;;;;4.53;1.38;;;19.50;41.00;;;;;;5131200;27;20398;-70
2022/04/12 09:32:49;;;;;;;3.58;0.98;;;19.50;41.10;;;;;;5064250;27;20445;-71
2022/04/12 09:35:16;;;;;;;5.97;1.08;;;19.60;41.40;;;;;;5066794;28;20135;-72
2022/04/12 09:37:44;;;;;;;2.28;1.00;;;19.60;41.40;;;;;;5065047;28;20048;-69
2022/04/12 09:40:12;;;;;;;1.92;0.90;;;19.70;41.30;;;;;;5066152;28;20048;-72
2022/04/12 09:42:57;;;;;;;2.60;0.80;;;19.80;41.80;;;;;;5065257;28;20045;-69
2022/04/12 09:45:25;;;;;;;4.25;1.02;;;19.90;41.10;;;;;;5068970;28;20547;-70
2022/04/12 09:47:52;;;;;;;5.53;1.08;;;19.90;41.00;;;;;;5067136;28;20121;-71
2022/04/12 09:50:22;;;;;;;4.40;1.25;;;20.00;41.10;;;;;;5066448;28;20068;-70
2022/04/12 09:58:15;;;;;;;1.90;0.80;;;20.10;41.00;;;;;;5068275;28;20411;-71
2022/04/12 10:00:42;;;;;;;3.83;1.20;;;20.30;40.90;;;;;;5047294;28;20036;-70
2022/04/12 10:03:10;;;;;;;5.93;0.98;;;20.30;40.90;;;;;;5052916;28;20045;-72
2022/04/12 10:05:36;;;;;;;4.72;0.80;;;20.30;41.00;;;;;;5064915;28;20051;-70
2022/04/12 10:08:04;;;;;;;3.08;0.50;;;20.40;41.00;;;;;;5051190;28;20661;-70
2022/04/12 10:10:30;;;;;;;4.38;1.42;;;20.40;41.10;;;;;;5047084;28;20587;-71
2022/04/12 10:12:57;;;;;;;2.83;1.23;;;20.50;40.90;;;;;;5064386;28;20048;-72
2022/04/12 10:15:24;;;;;;;2.97;1.20;;;20.50;40.80;;;;;;5047042;28;20045;-72
2022/04/12 10:17:51;;;;;;;3.70;0.80;;;20.50;40.70;;;;;;5048423;28;20526;-73
2022/04/12 10:20:21;;;;;;;4.20;1.67;;;20.60;40.80;;;;;;5043246;28;20029;-71
2022/04/12 10:22:48;;;;;;;3.80;1.10;;;20.60;40.80;;;;;;5064454;28;20045;-70
2022/04/12 10:25:17;;;;;;;4.63;1.73;;;20.60;40.70;;;;;;5062340;28;20130;-73
2022/04/12 10:27:43;;;;;;;5.03;1.40;;;20.60;40.50;;;;;;5050234;28;20051;-73
2022/04/12 10:38:26;;;;;;;5.85;1.20;;;20.60;40.00;;;;;;5113970;27;20411;-74
2022/04/12 10:40:54;;;;;;;3.80;1.90;;;20.60;39.80;;;;;;5101967;28;20058;-74
2022/04/12 10:43:24;;;;;;;4.03;1.55;;;20.60;39.90;;;;;;5093203;28;20044;-73
2022/04/12 10:45:52;;;;;;;4.00;2.40;;;20.60;39.90;;;;;;5097917;28;20475;-71
2022/04/12 10:48:21;;;;;;;4.43;1.52;;;20.50;39.90;;;;;;5090819;28;20040;-73
2022/04/12 10:50:48;;;;;;;3.53;1.40;;;20.50;39.90;;;;;;5097259;28;20040;-70
2022/04/12 10:53:14;;;;;;;4.63;2.40;;;20.50;40.10;;;;;;5100535;28;20052;-67
2022/04/12 10:55:42;;;;;;;6.40;2.17;;;20.50;40.20;;;;;;5093540;28;20589;-70
2022/04/12 10:58:28;;;;;;;6.38;1.92;;;20.50;40.30;;;;;;5111226;28;20044;-69
2022/04/12 11:00:54;;;;;;;4.55;0.82;;;20.50;40.50;;;;;;5093197;28;20093;-69
2022/04/12 11:03:45;;;;;;;4.65;1.30;;;20.50;40.60;;;;;;5094295;28;20043;-69
2022/04/12 11:09:11;;;;;;;6.18;2.30;;;20.50;40.90;;;;;;5124297;27;1244815;-68
2022/04/12 11:11:41;;;;;;;3.67;1.45;;;20.50;41.00;;;;;;5133049;27;20078;-66
2022/04/12 11:14:29;;;;;;;3.37;2.20;;;20.50;41.20;;;;;;5144728;27;20049;-69
2022/04/12 11:17:01;;;;;;;3.20;1.50;;;20.50;41.30;;;;;;5141095;27;20049;-70
2022/04/12 11:19:26;;;;;;;3.42;1.55;;;20.40;41.30;;;;;;5140130;27;20479;-71
2022/04/12 11:24:32;;;;;;;3.28;1.25;;;20.40;41.50;;;;;;5100869;27;20421;-68
2022/04/12 11:29:56;;;;;;;2.97;1.38;;;20.50;42.00;;;;;;5060287;27;20513;-67
2022/04/12 11:32:25;;;;;;;3.72;1.35;;;20.50;42.10;;;;;;5042167;28;21025;-70
2022/04/12 11:34:52;;;;;;;4.63;1.80;;;20.50;42.20;;;;;;5053025;28;20084;-68
2022/04/12 11:37:21;;;;;;;6.25;2.15;;;20.50;42.30;;;;;;5040676;28;20052;-68
2022/04/12 11:39:46;;;;;;;5.50;2.63;;;20.40;42.30;;;;;;5068746;28;20438;-66
2022/04/12 11:42:14;;;;;;;2.50;1.77;;;20.50;42.30;;;;;;5033327;28;20041;-68
2022/04/12 11:44:49;;;;;;;3.15;2.17;;;20.50;42.50;;;;;;5036496;28;20045;-68
2022/04/12 11:47:15;;;;;;;6.78;2.22;;;20.50;42.40;;;;;;5036355;28;20037;-68
2022/04/12 11:49:42;;;;;;;6.63;1.98;;;20.40;42.30;;;;;;5066525;28;20629;-70
2022/04/12 11:52:10;;;;;;;12.35;3.30;;;20.50;42.50;;;;;;5029683;28;20052;-68
2022/04/12 11:54:42;;;;;;;5.70;2.35;;;20.50;42.60;;;;;;5063886;28;20454;-67
2022/04/12 11:59:55;;;;;;;4.90;1.75;;;20.50;42.50;;;;;;5132124;27;1171855;-71
2022/04/12 12:02:23;;;;;;;8.40;2.20;;;20.50;42.90;;;;;;5135119;27;20088;-69
2022/04/12 12:04:56;;;;;;;7.22;1.90;;;20.50;43.00;;;;;;5138825;27;20090;-70
2022/04/12 12:07:21;;;;;;;8.07;2.22;;;20.50;43.00;;;;;;5134571;27;20125;-69
2022/04/12 12:10:11;;;;;;;6.00;1.35;;;20.50;43.00;;;;;;5136880;27;20121;-69
2022/04/12 12:12:40;;;;;;;6.43;1.80;;;20.50;43.00;;;;;;5137195;27;20129;-67
2022/04/12 12:15:26;;;;;;;2.67;1.50;;;20.50;43.00;;;;;;5138778;27;20038;-70
2022/04/12 12:20:34;;;;;;;2.63;1.48;;;20.50;43.20;;;;;;5085229;27;20496;-69
2022/04/12 12:23:03;;;;;;;3.65;1.20;;;20.50;43.10;;;;;;5123369;27;20601;-67
2022/04/12 12:25:39;;;;;;;6.53;2.05;;;20.50;43.20;;;;;;5112553;27;20862;-68
2022/04/12 12:28:15;;;;;;;6.38;1.98;;;20.50;43.30;;;;;;5122458;27;20065;-70
2022/04/12 12:30:43;;;;;;;6.72;1.58;;;20.50;43.50;;;;;;5121726;27;20040;-70
2022/04/12 12:33:12;;;;;;;5.03;1.23;;;20.60;43.50;;;;;;5120158;27;20047;-70
2022/04/12 12:35:41;;;;;;;5.70;1.75;;;20.60;43.60;;;;;;5085612;28;20060;-69
2022/04/12 12:38:11;;;;;;;4.57;1.35;;;20.60;43.60;;;;;;5087932;28;20036;-70
2022/04/12 12:40:38;;;;;;;7.97;2.25;;;20.70;43.70;;;;;;5095777;28;20039;-66
2022/04/12 12:43:05;;;;;;;4.07;1.25;;;20.70;43.70;;;;;;5122525;27;20051;-71
2022/04/12 12:45:34;;;;;;;5.40;1.63;;;20.70;43.80;;;;;;5088785;28;20078;-69
2022/04/12 12:48:07;;;;;;;6.63;2.53;;;20.70;43.80;;;;;;5118234;27;20720;-69
2022/04/12 12:50:36;;;;;;;7.45;1.50;;;20.70;43.80;;;;;;5109125;27;20645;-67
2022/04/12 12:53:04;;;;;;;5.07;1.42;;;20.70;44.10;;;;;;5085384;28;20119;-69
2022/04/12 12:55:32;;;;;;;4.40;1.88;;;20.70;44.40;;;;;;5114890;27;20783;-67
2022/04/12 12:58:07;;;;;;;4.40;1.92;;;20.70;44.50;;;;;;5114945;27;20044;-68
2022/04/12 13:00:33;;;;;;;5.25;1.77;;;20.80;44.50;;;;;;5085326;28;20040;-70
2022/04/12 13:03:09;;;;;;;4.18;2.05;;;20.80;44.50;;;;;;5084615;28;20032;-67
2022/04/12 13:05:35;;;;;;;4.65;1.48;;;20.80;44.50;;;;;;5087643;28;20044;-71
2022/04/12 13:08:04;;;;;;;5.70;2.50;;;20.80;44.50;;;;;;5099032;28;20639;-71
2022/04/12 13:10:37;;;;;;;3.80;1.73;;;20.80;44.50;;;;;;5122246;27;20503;-72
2022/04/12 13:13:05;;;;;;;4.18;1.50;;;20.80;44.60;;;;;;5098404;28;20093;-71
2022/04/12 13:15:31;;;;;;;6.55;2.28;;;20.80;44.60;;;;;;5098973;28;20097;-70
2022/04/12 13:17:57;;;;;;;5.05;2.38;;;20.80;44.60;;;;;;5107515;28;20064;-67
2022/04/12 13:20:23;;;;;;;4.40;3.05;;;20.80;44.40;;;;;;5103979;28;20051;-70
2022/04/12 13:22:49;;;;;;;4.68;2.05;;;20.80;44.30;;;;;;5098803;28;20430;-69
2022/04/12 13:25:17;;;;;;;3.78;2.25;;;20.80;44.50;;;;;;5098663;28;20042;-69
2022/04/12 13:27:52;;;;;;;4.03;3.15;;;20.80;44.50;;;;;;5102608;28;20035;-69
2022/04/12 13:30:21;;;;;;;4.03;2.28;;;20.80;44.60;;;;;;5095481;28;20052;-67